Time;durP1;ratioP1;P1;durP2;ratioP2;P2;SDS_P1;SDS_P2;PMS_P1;PMS_P2;Temp;Humidity;BMP_temperature;BMP_pressure;BME280_temperature;BME280_humidity;BME280_pressure;Samples;Min_cycle;Max_cycle;Signal;HPM_P1;HPM_P2
2023/04/07 00:00:14;;;;;;;;;;;;;;;;;;136598;1272;22534;-84
2023/04/07 00:03:37;;;;;;;;;;;;;;;;;;136803;1272;24203;-83
2023/04/07 00:06:39;;;;;;;;;;;;;;;;;;136758;1272;22467;-84
2023/04/07 00:09:41;;;;;;;;;;;;;;;;;;136769;1272;25380;-84
2023/04/07 00:12:43;;;;;;;;;;;;;;;;;;136684;1272;22510;-84
2023/04/07 00:15:44;;;;;;;;;;;;;;;;;;136482;1272;22515;-84
2023/04/07 00:18:47;;;;;;;;;;;;;;;;;;136878;1272;22824;-86
2023/04/07 00:21:49;;;;;;;;;;;;;;;;;;136790;1272;23312;-84
2023/04/07 00:24:50;;;;;;;;;;;;;;;;;;136221;1272;22916;-85
2023/04/07 00:27:51;;;;;;;;;;;;;;;;;;137342;1272;22502;-87
2023/04/07 00:30:52;;;;;;;;;;;;;;;;;;136871;1272;22555;-86
2023/04/07 00:33:54;;;;;;;;;;;;;;;;;;137067;1272;22533;-87
2023/04/07 00:36:55;;;;;;;;;;;;;;;;;;137083;1272;22518;-85
2023/04/07 00:40:03;;;;;;;;;;;;;;;;;;137012;1272;22633;-83
2023/04/07 00:43:05;;;;;;;;;;;;;;;;;;136575;1272;22551;-84
2023/04/07 00:46:06;;;;;;;;;;;;;;;;;;136928;1272;22625;-84
2023/04/07 00:49:07;;;;;;;;;;;;;;;;;;137253;1272;22488;-84
2023/04/07 00:52:10;;;;;;;;;;;;;;;;;;136616;1272;24208;-84
2023/04/07 00:55:13;;;;;;;;;;;;;;;;;;136850;1272;22514;-83
2023/04/07 00:58:17;;;;;;;;;;;;;;;;;;136736;1272;22533;-84
2023/04/07 01:01:18;;;;;;;;;;;;;;;;;;136639;1272;22548;-85
2023/04/07 01:04:19;;;;;;;;;;;;;;;;;;136951;1272;22558;-85
2023/04/07 01:07:20;;;;;;;;;;;;;;;;;;136512;1272;22518;-85
2023/04/07 01:10:22;;;;;;;;;;;;;;;;;;136734;1272;22520;-83
2023/04/07 01:13:28;;;;;;;;;;;;;;;;;;136942;1272;22538;-83
2023/04/07 01:16:30;;;;;;;;;;;;;;;;;;136549;1272;22977;-83
2023/04/07 01:19:32;;;;;;;;;;;;;;;;;;136591;1272;23836;-83
2023/04/07 01:22:33;;;;;;;;;;;;;;;;;;136693;1272;22542;-83
2023/04/07 01:25:35;;;;;;;;;;;;;;;;;;136163;1272;23151;-83
2023/04/07 01:28:36;;;;;;;;;;;;;;;;;;136998;1272;22544;-84
2023/04/07 01:31:37;;;;;;;;;;;;;;;;;;136598;1272;22596;-81
2023/04/07 01:34:41;;;;;;;;;;;;;;;;;;136545;1272;22533;-83
2023/04/07 01:37:45;;;;;;;;;;;;;;;;;;136655;1272;22541;-84
2023/04/07 01:40:46;;;;;;;;;;;;;;;;;;136546;1272;22622;-82
2023/04/07 01:43:50;;;;;;;;;;;;;;;;;;136989;1272;22558;-85
2023/04/07 01:46:51;;;;;;;;;;;;;;;;;;137085;1272;22516;-84
2023/04/07 01:49:53;;;;;;;;;;;;;;;;;;136658;1272;22551;-83
2023/04/07 01:52:54;;;;;;;;;;;;;;;;;;137596;1272;22501;-84
2023/04/07 01:55:55;;;;;;;;;;;;;;;;;;136965;1272;22542;-84
2023/04/07 01:58:56;;;;;;;;;;;;;;;;;;137028;1272;22538;-84
2023/04/07 02:01:58;;;;;;;;;;;;;;;;;;137502;1272;22540;-84
2023/04/07 02:04:59;;;;;;;;;;;;;;;;;;137082;1272;22540;-85
2023/04/07 02:08:00;;;;;;;;;;;;;;;;;;136554;1272;22564;-85
2023/04/07 02:11:03;;;;;;;;;;;;;;;;;;137389;1272;22524;-84
2023/04/07 02:14:05;;;;;;;;;;;;;;;;;;136933;1272;22504;-84
2023/04/07 02:17:09;;;;;;;;;;;;;;;;;;136660;1272;22507;-81
2023/04/07 02:20:10;;;;;;;;;;;;;;;;;;137255;1272;22523;-87
2023/04/07 02:23:11;;;;;;;;;;;;;;;;;;137012;1272;23111;-84
2023/04/07 02:26:12;;;;;;;;;;;;;;;;;;136729;1272;24209;-84
2023/04/07 02:29:13;;;;;;;;;;;;;;;;;;136798;1272;22975;-85
2023/04/07 02:32:16;;;;;;;;;;;;;;;;;;136633;1272;22529;-82
2023/04/07 02:35:17;;;;;;;;;;;;;;;;;;136824;1272;22535;-85
2023/04/07 02:38:19;;;;;;;;;;;;;;;;;;137239;1272;22520;-85
2023/04/07 02:41:20;;;;;;;;;;;;;;;;;;136637;1272;22540;-84
2023/04/07 02:44:21;;;;;;;;;;;;;;;;;;137150;1272;23332;-85
2023/04/07 02:47:28;;;;;;;;;;;;;;;;;;136692;1262;25249;-83
2023/04/07 02:50:32;;;;;;;;;;;;;;;;;;136682;1271;23445;-86
2023/04/07 02:53:33;;;;;;;;;;;;;;;;;;137046;1275;22520;-84
2023/04/07 02:56:37;;;;;;;;;;;;;;;;;;136538;1275;22577;-86
2023/04/07 02:59:38;;;;;;;;;;;;;;;;;;136435;1275;22629;-84
2023/04/07 03:02:40;;;;;;;;;;;;;;;;;;137110;1275;22583;-83
2023/04/07 03:05:41;;;;;;;;;;;;;;;;;;137101;1272;22545;-84
2023/04/07 03:08:43;;;;;;;;;;;;;;;;;;137032;1272;22532;-84
2023/04/07 03:11:44;;;;;;;;;;;;;;;;;;137343;1272;22884;-85
2023/04/07 03:14:45;;;;;;;;;;;;;;;;;;137486;1272;22602;-85
2023/04/07 03:17:46;;;;;;;;;;;;;;;;;;137082;1272;22564;-85
2023/04/07 03:20:51;;;;;;;;;;;;;;;;;;136924;1272;22458;-83
2023/04/07 03:23:52;;;;;;;;;;;;;;;;;;136701;1272;23041;-84
2023/04/07 03:26:53;;;;;;;;;;;;;;;;;;137046;1272;22897;-85
2023/04/07 03:29:55;;;;;;;;;;;;;;;;;;136822;1272;22446;-86
2023/04/07 03:33:00;;;;;;;;;;;;;;;;;;136716;1272;22538;-85
2023/04/07 03:36:01;;;;;;;;;;;;;;;;;;136732;1272;22575;-85
2023/04/07 03:39:02;;;;;;;;;;;;;;;;;;137441;1272;22533;-85
2023/04/07 03:42:04;;;;;;;;;;;;;;;;;;137095;1272;22492;-85
2023/04/07 03:45:05;;;;;;;;;;;;;;;;;;136938;1269;22519;-85
2023/04/07 03:48:09;;;;;;;;;;;;;;;;;;137238;1272;22542;-84
2023/04/07 03:51:10;;;;;;;;;;;;;;;;;;137455;1272;22941;-85
2023/04/07 03:54:11;;;;;;;;;;;;;;;;;;137158;1272;22493;-85
2023/04/07 03:57:12;;;;;;;;;;;;;;;;;;137208;1272;22530;-85
2023/04/07 04:00:13;;;;;;;;;;;;;;;;;;137486;1272;22938;-84
2023/04/07 04:03:14;;;;;;;;;;;;;;;;;;136492;1272;22568;-82
2023/04/07 04:06:15;;;;;;;;;;;;;;;;;;137055;1269;22514;-83
2023/04/07 04:09:17;;;;;;;;;;;;;;;;;;137449;1272;22896;-83
2023/04/07 04:12:18;;;;;;;;;;;;;;;;;;137265;1272;22969;-83
2023/04/07 04:15:19;;;;;;;;;;;;;;;;;;137490;1272;22571;-84
2023/04/07 04:18:20;;;;;;;;;;;;;;;;;;136866;1272;22527;-83
2023/04/07 04:21:21;;;;;;;;;;;;;;;;;;137622;1272;22311;-84
2023/04/07 04:24:25;;;;;;;;;;;;;;;;;;137262;1272;22578;-84
2023/04/07 04:27:26;;;;;;;;;;;;;;;;;;137047;1272;22445;-84
2023/04/07 04:30:27;;;;;;;;;;;;;;;;;;136978;1272;22441;-83
2023/04/07 04:33:29;;;;;;;;;;;;;;;;;;136932;1272;22538;-83
2023/04/07 04:36:30;;;;;;;;;;;;;;;;;;137617;1272;22464;-82
2023/04/07 04:39:31;;;;;;;;;;;;;;;;;;137192;1272;22510;-83
2023/04/07 04:42:32;;;;;;;;;;;;;;;;;;137659;1272;22344;-84
2023/04/07 04:45:33;;;;;;;;;;;;;;;;;;137343;1272;22556;-83
2023/04/07 04:48:34;;;;;;;;;;;;;;;;;;137004;1272;22546;-84
2023/04/07 04:51:36;;;;;;;;;;;;;;;;;;137447;1272;22932;-83
2023/04/07 04:54:37;;;;;;;;;;;;;;;;;;137418;1272;23175;-82
2023/04/07 04:57:38;;;;;;;;;;;;;;;;;;137620;1272;22901;-82
2023/04/07 05:00:40;;;;;;;;;;;;;;;;;;137665;1272;22311;-82
2023/04/07 05:03:41;;;;;;;;;;;;;;;;;;137365;1272;22481;-83
2023/04/07 05:06:42;;;;;;;;;;;;;;;;;;137165;1272;22878;-83
2023/04/07 05:09:43;;;;;;;;;;;;;;;;;;137636;1272;23154;-82
2023/04/07 05:12:44;;;;;;;;;;;;;;;;;;137507;1272;22936;-82
2023/04/07 05:15:45;;;;;;;;;;;;;;;;;;137400;1272;23023;-82
2023/04/07 05:18:46;;;;;;;;;;;;;;;;;;137438;1272;23331;-82
2023/04/07 05:21:47;;;;;;;;;;;;;;;;;;137646;1267;22410;-83
2023/04/07 05:24:48;;;;;;;;;;;;;;;;;;137171;1272;22568;-83
2023/04/07 05:27:49;;;;;;;;;;;;;;;;;;137287;1272;22586;-83
2023/04/07 05:30:50;;;;;;;;;;;;;;;;;;137451;1272;22557;-83
2023/04/07 05:33:51;;;;;;;;;;;;;;;;;;137110;1272;22495;-82
2023/04/07 05:36:52;;;;;;;;;;;;;;;;;;137630;1272;22287;-83
2023/04/07 05:39:54;;;;;;;;;;;;;;;;;;137425;1272;22539;-84
2023/04/07 05:42:55;;;;;;;;;;;;;;;;;;137362;1272;22490;-83
2023/04/07 05:45:56;;;;;;;;;;;;;;;;;;137194;1272;22506;-83
2023/04/07 05:48:57;;;;;;;;;;;;;;;;;;137504;1272;25678;-86
2023/04/07 05:51:58;;;;;;;;;;;;;;;;;;137161;1272;22553;-83
2023/04/07 05:54:59;;;;;;;;;;;;;;;;;;137677;1272;22368;-83
2023/04/07 05:58:01;;;;;;;;;;;;;;;;;;137594;1272;25409;-82
2023/04/07 06:01:02;;;;;;;;;;;;;;;;;;137486;1272;22515;-83
2023/04/07 06:04:03;;;;;;;;;;;;;;;;;;137025;1272;22498;-82
2023/04/07 06:07:04;;;;;;;;;;;;;;;;;;137611;1272;22491;-82
2023/04/07 06:10:05;;;;;;;;;;;;;;;;;;137595;1272;22287;-82
2023/04/07 06:13:06;;;;;;;;;;;;;;;;;;137324;1272;22489;-82
2023/04/07 06:16:07;;;;;;;;;;;;;;;;;;137660;1272;22335;-83
2023/04/07 06:19:08;;;;;;;;;;;;;;;;;;137624;1272;22310;-85
2023/04/07 06:22:09;;;;;;;;;;;;;;;;;;137427;1272;22519;-83
2023/04/07 06:25:11;;;;;;;;;;;;;;;;;;137589;1272;22507;-83
2023/04/07 06:28:12;;;;;;;;;;;;;;;;;;137634;1272;22714;-84
2023/04/07 06:31:13;;;;;;;;;;;;;;;;;;137537;1272;22605;-83
2023/04/07 06:34:14;;;;;;;;;;;;;;;;;;137673;1272;22830;-82
2023/04/07 06:37:15;;;;;;;;;;;;;;;;;;137663;1272;22301;-83
2023/04/07 06:40:16;;;;;;;;;;;;;;;;;;137671;1272;22519;-82
2023/04/07 06:43:17;;;;;;;;;;;;;;;;;;137683;1272;22393;-82
2023/04/07 06:46:18;;;;;;;;;;;;;;;;;;137647;1272;22271;-83
2023/04/07 06:49:19;;;;;;;;;;;;;;;;;;137385;1272;22481;-83
2023/04/07 06:52:20;;;;;;;;;;;;;;;;;;137200;1272;23025;-82
2023/04/07 06:55:22;;;;;;;;;;;;;;;;;;137653;1272;22279;-82
2023/04/07 06:58:23;;;;;;;;;;;;;;;;;;136919;1272;204445;-82
2023/04/07 07:01:24;;;;;;;;;;;;;;;;;;137645;1272;22340;-83
2023/04/07 07:04:25;;;;;;;;;;;;;;;;;;137643;1272;22322;-82
2023/04/07 07:07:26;;;;;;;;;;;;;;;;;;137605;1272;22329;-82
2023/04/07 07:10:27;;;;;;;;;;;;;;;;;;137688;1272;22304;-82
2023/04/07 07:13:28;;;;;;;;;;;;;;;;;;137594;1272;22521;-81
2023/04/07 07:16:29;;;;;;;;;;;;;;;;;;137155;1272;22503;-82
2023/04/07 07:19:30;;;;;;;;;;;;;;;;;;137268;1272;22569;-82
2023/04/07 07:22:31;;;;;;;;;;;;;;;;;;137668;1272;22811;-82
2023/04/07 07:25:32;;;;;;;;;;;;;;;;;;137673;1272;22385;-82
2023/04/07 07:28:33;;;;;;;;;;;;;;;;;;137212;1272;22992;-82
2023/04/07 07:31:34;;;;;;;;;;;;;;;;;;137508;1272;22563;-82
2023/04/07 07:34:35;;;;;;;;;;;;;;;;;;137418;1272;22503;-82
2023/04/07 07:37:36;;;;;;;;;;;;;;;;;;137082;1260;22509;-81
2023/04/07 07:40:37;;;;;;;;;;;;;;;;;;137610;1272;22968;-82
2023/04/07 07:43:38;;;;;;;;;;;;;;;;;;137632;1272;22320;-81
2023/04/07 07:46:40;;;;;;;;;;;;;;;;;;137650;1272;22339;-82
2023/04/07 07:49:41;;;;;;;;;;;;;;;;;;137566;1272;22560;-81
2023/04/07 07:52:42;;;;;;;;;;;;;;;;;;137589;1272;22864;-82
2023/04/07 07:55:43;;;;;;;;;;;;;;;;;;137528;1272;22508;-82
2023/04/07 07:58:44;;;;;;;;;;;;;;;;;;137621;1272;22785;-81
2023/04/07 08:01:45;;;;;;;;;;;;;;;;;;137590;1272;22332;-82
2023/04/07 08:04:46;;;;;;;;;;;;;;;;;;137608;1272;22734;-81
2023/04/07 08:07:47;;;;;;;;;;;;;;;;;;137633;1272;22766;-83
2023/04/07 08:10:49;;;;;;;;;;;;;;;;;;137658;1272;22703;-84
2023/04/07 08:13:50;;;;;;;;;;;;;;;;;;137671;1272;22278;-82
2023/04/07 08:16:51;;;;;;;;;;;;;;;;;;137675;1272;22427;-80
2023/04/07 08:19:52;;;;;;;;;;;;;;;;;;137604;1272;22307;-82
2023/04/07 08:22:54;;;;;;;;;;;;;;;;;;137623;1272;22443;-82
2023/04/07 08:25:55;;;;;;;;;;;;;;;;;;137595;1272;22922;-83
2023/04/07 08:28:57;;;;;;;;;;;;;;;;;;137626;1272;22322;-83
2023/04/07 08:31:58;;;;;;;;;;;;;;;;;;137594;1268;22301;-84
2023/04/07 08:34:59;;;;;;;;;;;;;;;;;;137590;1272;22341;-84
2023/04/07 08:38:01;;;;;;;;;;;;;;;;;;137652;1272;22343;-84
2023/04/07 08:41:03;;;;;;;;;;;;;;;;;;137649;1272;22285;-83
2023/04/07 08:44:04;;;;;;;;;;;;;;;;;;137509;1272;22528;-84
2023/04/07 08:47:06;;;;;;;;;;;;;;;;;;137401;1272;22592;-85
2023/04/07 08:50:07;;;;;;;;;;;;;;;;;;137407;1271;22520;-85
2023/04/07 08:53:08;;;;;;;;;;;;;;;;;;136989;1272;22498;-84
2023/04/07 08:56:09;;;;;;;;;;;;;;;;;;137238;1272;22544;-82
2023/04/07 08:59:10;;;;;;;;;;;;;;;;;;137403;1272;22503;-85
2023/04/07 09:02:11;;;;;;;;;;;;;;;;;;137485;1272;22508;-84
2023/04/07 09:05:13;;;;;;;;;;;;;;;;;;137540;1272;23244;-84
2023/04/07 09:08:14;;;;;;;;;;;;;;;;;;137514;1272;22511;-84
2023/04/07 09:11:15;;;;;;;;;;;;;;;;;;137425;1272;22518;-82
2023/04/07 09:14:17;;;;;;;;;;;;;;;;;;137666;1272;22328;-83
2023/04/07 09:17:18;;;;;;;;;;;;;;;;;;137571;1272;22324;-82
2023/04/07 09:20:19;;;;;;;;;;;;;;;;;;137619;1272;22254;-83
2023/04/07 09:23:21;;;;;;;;;;;;;;;;;;137486;1272;22500;-82
2023/04/07 09:26:22;;;;;;;;;;;;;;;;;;137580;1272;22363;-82
2023/04/07 09:29:23;;;;;;;;;;;;;;;;;;137575;1272;22284;-83
2023/04/07 09:32:24;;;;;;;;;;;;;;;;;;137597;1272;22326;-82
2023/04/07 09:35:27;;;;;;;;;;;;;;;;;;137587;1272;22338;-81
2023/04/07 09:38:28;;;;;;;;;;;;;;;;;;137569;1272;22288;-82
2023/04/07 09:41:29;;;;;;;;;;;;;;;;;;137586;1272;22757;-82
2023/04/07 09:44:30;;;;;;;;;;;;;;;;;;137235;1272;22600;-82
2023/04/07 09:47:32;;;;;;;;;;;;;;;;;;137535;1272;22498;-82
2023/04/07 09:50:34;;;;;;;;;;;;;;;;;;137382;1272;22591;-82
2023/04/07 09:53:35;;;;;;;;;;;;;;;;;;137316;1272;22516;-82
2023/04/07 09:56:36;;;;;;;;;;;;;;;;;;137634;1272;22337;-82
2023/04/07 09:59:37;;;;;;;;;;;;;;;;;;137637;1272;22280;-81
2023/04/07 10:02:38;;;;;;;;;;;;;;;;;;137587;1267;23127;-83
2023/04/07 10:05:40;;;;;;;;;;;;;;;;;;137377;1272;22531;-81
2023/04/07 10:08:41;;;;;;;;;;;;;;;;;;137458;1272;22516;-82
2023/04/07 10:11:42;;;;;;;;;;;;;;;;;;137122;1272;22512;-82
2023/04/07 10:14:45;;;;;;;;;;;;;;;;;;137646;1272;22323;-82
2023/04/07 10:17:47;;;;;;;;;;;;;;;;;;137631;1272;22311;-81
2023/04/07 10:20:48;;;;;;;;;;;;;;;;;;137223;1272;22513;-81
2023/04/07 10:23:49;;;;;;;;;;;;;;;;;;137019;1272;22526;-80
2023/04/07 10:26:50;;;;;;;;;;;;;;;;;;137619;1272;22356;-82
2023/04/07 10:29:51;;;;;;;;;;;;;;;;;;137643;1272;22352;-83
2023/04/07 10:32:53;;;;;;;;;;;;;;;;;;137605;1272;23107;-82
2023/04/07 10:35:54;;;;;;;;;;;;;;;;;;137600;1272;23108;-81
2023/04/07 10:38:55;;;;;;;;;;;;;;;;;;137629;1272;22318;-82
2023/04/07 10:41:57;;;;;;;;;;;;;;;;;;137639;1272;23046;-82
2023/04/07 10:44:59;;;;;;;;;;;;;;;;;;137613;1272;22349;-82
2023/04/07 10:48:04;;;;;;;;;;;;;;;;;;137569;1272;22368;-82
2023/04/07 10:51:06;;;;;;;;;;;;;;;;;;137635;1272;22297;-82
2023/04/07 10:54:07;;;;;;;;;;;;;;;;;;137616;1272;22434;-82
2023/04/07 10:57:26;;;;;;;;;;;;;;;;;;133419;1307;544027;-84
2023/04/07 11:00:29;;;;;;;;;;;;;;;;;;136363;1280;22420;-81
2023/04/07 11:03:31;;;;;;;;;;;;;;;;;;136322;1288;23052;-80
2023/04/07 11:06:33;;;;;;;;;;;;;;;;;;136336;1288;22762;-82
2023/04/07 11:09:36;;;;;;;;;;;;;;;;;;136216;1286;144236;-80
2023/04/07 11:12:38;;;;;;;;;;;;;;;;;;136457;1286;23091;-80
2023/04/07 11:15:41;;;;;;;;;;;;;;;;;;136401;1285;22315;-81
2023/04/07 11:18:43;;;;;;;;;;;;;;;;;;136441;1286;22510;-80
2023/04/07 11:21:45;;;;;;;;;;;;;;;;;;136416;1286;22336;-82
2023/04/07 11:24:48;;;;;;;;;;;;;;;;;;136430;1286;22405;-81
2023/04/07 11:27:51;;;;;;;;;;;;;;;;;;136475;1286;22332;-81
2023/04/07 11:30:53;;;;;;;;;;;;;;;;;;136354;1286;22543;-81
2023/04/07 11:33:56;;;;;;;;;;;;;;;;;;136475;1279;22469;-80
2023/04/07 11:37:00;;;;;;;;;;;;;;;;;;136502;1286;22392;-81
2023/04/07 11:40:03;;;;;;;;;;;;;;;;;;136021;1286;23323;-81
2023/04/07 11:43:05;;;;;;;;;;;;;;;;;;136225;1286;23257;-80
2023/04/07 11:46:08;;;;;;;;;;;;;;;;;;136357;1286;22526;-80
2023/04/07 11:49:10;;;;;;;;;;;;;;;;;;136528;1286;22337;-82
2023/04/07 11:52:13;;;;;;;;;;;;;;;;;;136515;1286;22357;-81
2023/04/07 11:55:15;;;;;;;;;;;;;;;;;;136489;1286;22469;-81
2023/04/07 11:58:18;;;;;;;;;;;;;;;;;;136464;1286;22272;-82
2023/04/07 12:01:20;;;;;;;;;;;;;;;;;;136529;1286;22406;-81
2023/04/07 12:04:22;;;;;;;;;;;;;;;;;;136501;1286;22280;-82
2023/04/07 12:07:28;;;;;;;;;;;;;;;;;;136457;1286;22366;-82
2023/04/07 12:10:32;;;;;;;;;;;;;;;;;;136523;1282;22863;-82
2023/04/07 12:13:34;;;;;;;;;;;;;;;;;;136502;1286;22284;-81
2023/04/07 12:16:39;;;;;;;;;;;;;;;;;;136488;1286;22355;-82
2023/04/07 12:19:42;;;;;;;;;;;;;;;;;;136483;1283;22350;-82
2023/04/07 12:22:45;;;;;;;;;;;;;;;;;;136452;1286;22352;-81
2023/04/07 12:25:47;;;;;;;;;;;;;;;;;;136424;1286;22401;-81
2023/04/07 12:28:50;;;;;;;;;;;;;;;;;;136456;1277;22339;-82
2023/04/07 12:31:52;;;;;;;;;;;;;;;;;;136638;1281;22538;-83
2023/04/07 12:34:55;;;;;;;;;;;;;;;;;;136674;1281;23062;-83
2023/04/07 12:37:57;;;;;;;;;;;;;;;;;;137427;1274;22356;-82
2023/04/07 12:41:02;;;;;;;;;;;;;;;;;;137387;1274;22257;-83
2023/04/07 12:44:04;;;;;;;;;;;;;;;;;;137302;1274;22461;-82
2023/04/07 12:47:07;;;;;;;;;;;;;;;;;;137446;1274;22287;-82
2023/04/07 12:50:10;;;;;;;;;;;;;;;;;;137405;1274;22324;-81
2023/04/07 12:53:12;;;;;;;;;;;;;;;;;;137389;1274;22280;-82
2023/04/07 12:56:15;;;;;;;;;;;;;;;;;;137428;1274;22433;-83
2023/04/07 12:59:18;;;;;;;;;;;;;;;;;;137429;1274;22927;-81
2023/04/07 13:02:20;;;;;;;;;;;;;;;;;;137405;1274;22318;-82
2023/04/07 13:05:23;;;;;;;;;;;;;;;;;;137453;1274;22762;-82
2023/04/07 13:08:26;;;;;;;;;;;;;;;;;;137429;1274;22329;-81
2023/04/07 13:11:28;;;;;;;;;;;;;;;;;;137396;1274;22698;-82
2023/04/07 13:14:30;;;;;;;;;;;;;;;;;;137405;1274;22285;-81
2023/04/07 13:17:35;;;;;;;;;;;;;;;;;;137424;1274;22760;-82
2023/04/07 13:20:37;;;;;;;;;;;;;;;;;;137372;1274;22357;-82
2023/04/07 13:23:40;;;;;;;;;;;;;;;;;;137402;1274;22892;-82
2023/04/07 13:26:42;;;;;;;;;;;;;;;;;;137424;1274;22393;-83
2023/04/07 13:29:45;;;;;;;;;;;;;;;;;;137433;1274;22352;-82
2023/04/07 13:32:48;;;;;;;;;;;;;;;;;;137387;1274;23228;-83
2023/04/07 13:35:51;;;;;;;;;;;;;;;;;;137435;1274;22504;-82
2023/04/07 13:38:53;;;;;;;;;;;;;;;;;;137363;1274;22522;-83
2023/04/07 13:41:56;;;;;;;;;;;;;;;;;;137153;1274;23073;-83
2023/04/07 13:44:59;;;;;;;;;;;;;;;;;;137391;1274;23422;-83
2023/04/07 13:48:02;;;;;;;;;;;;;;;;;;137371;1274;22543;-81
2023/04/07 13:51:04;;;;;;;;;;;;;;;;;;137372;1274;22488;-83
2023/04/07 13:54:06;;;;;;;;;;;;;;;;;;137546;1269;22514;-82
2023/04/07 13:57:09;;;;;;;;;;;;;;;;;;137441;1271;22551;-84
2023/04/07 14:00:14;;;;;;;;;;;;;;;;;;137246;1273;22545;-83
2023/04/07 14:03:16;;;;;;;;;;;;;;;;;;137284;1273;22891;-81
2023/04/07 14:06:21;;;;;;;;;;;;;;;;;;137543;1273;22545;-83
2023/04/07 14:09:23;;;;;;;;;;;;;;;;;;137444;1273;22578;-82
2023/04/07 14:12:26;;;;;;;;;;;;;;;;;;137395;1274;22482;-81
2023/04/07 14:15:28;;;;;;;;;;;;;;;;;;137576;1273;22832;-82
2023/04/07 14:18:31;;;;;;;;;;;;;;;;;;137561;1274;22286;-82
2023/04/07 14:21:33;;;;;;;;;;;;;;;;;;137609;1274;22345;-82
2023/04/07 14:24:36;;;;;;;;;;;;;;;;;;137457;1266;22532;-82
2023/04/07 14:27:41;;;;;;;;;;;;;;;;;;137503;1274;22947;-81
2023/04/07 14:30:43;;;;;;;;;;;;;;;;;;137520;1273;22493;-82
2023/04/07 14:33:46;;;;;;;;;;;;;;;;;;137425;1273;22528;-81
2023/04/07 14:36:48;;;;;;;;;;;;;;;;;;137508;1271;22557;-82
2023/04/07 14:39:51;;;;;;;;;;;;;;;;;;137358;1274;23067;-81
2023/04/07 14:42:54;;;;;;;;;;;;;;;;;;137510;1274;22505;-81
2023/04/07 14:45:58;;;;;;;;;;;;;;;;;;137481;1273;22881;-81
2023/04/07 14:49:00;;;;;;;;;;;;;;;;;;137604;1274;22813;-82
2023/04/07 14:52:03;;;;;;;;;;;;;;;;;;137402;1273;22557;-81
2023/04/07 14:55:05;;;;;;;;;;;;;;;;;;137644;1274;22456;-82
2023/04/07 14:58:08;;;;;;;;;;;;;;;;;;137577;1273;22481;-82
2023/04/07 15:01:10;;;;;;;;;;;;;;;;;;137491;1274;23006;-81
2023/04/07 15:04:12;;;;;;;;;;;;;;;;;;137424;1274;22563;-79
2023/04/07 15:07:15;;;;;;;;;;;;;;;;;;137599;1273;22357;-81
2023/04/07 15:10:17;;;;;;;;;;;;;;;;;;137582;1273;22268;-81
2023/04/07 15:13:20;;;;;;;;;;;;;;;;;;137553;1274;22267;-80
2023/04/07 15:16:22;;;;;;;;;;;;;;;;;;137545;1274;22355;-81
2023/04/07 15:19:25;;;;;;;;;;;;;;;;;;137583;1274;22505;-80
2023/04/07 15:22:29;;;;;;;;;;;;;;;;;;137371;1274;22977;-80
2023/04/07 15:25:32;;;;;;;;;;;;;;;;;;137497;1273;22520;-80
2023/04/07 15:28:34;;;;;;;;;;;;;;;;;;137396;1273;22505;-80
2023/04/07 15:31:36;;;;;;;;;;;;;;;;;;137280;1274;22550;-82
2023/04/07 15:34:41;;;;;;;;;;;;;;;;;;137490;1273;22519;-80
2023/04/07 15:37:43;;;;;;;;;;;;;;;;;;137435;1274;22585;-81
2023/04/07 15:40:46;;;;;;;;;;;;;;;;;;137530;1271;22505;-80
2023/04/07 15:43:49;;;;;;;;;;;;;;;;;;137547;1274;22558;-81
2023/04/07 15:46:52;;;;;;;;;;;;;;;;;;137629;1274;22389;-81
2023/04/07 15:49:55;;;;;;;;;;;;;;;;;;137627;1273;22296;-81
2023/04/07 15:52:57;;;;;;;;;;;;;;;;;;137630;1274;22320;-82
2023/04/07 15:56:00;;;;;;;;;;;;;;;;;;137429;1274;22519;-81
2023/04/07 15:59:02;;;;;;;;;;;;;;;;;;137555;1274;22390;-80
2023/04/07 16:02:05;;;;;;;;;;;;;;;;;;137428;1267;22904;-82
2023/04/07 16:05:08;;;;;;;;;;;;;;;;;;137471;1274;22507;-81
2023/04/07 16:08:10;;;;;;;;;;;;;;;;;;137497;1273;22338;-80
2023/04/07 16:11:13;;;;;;;;;;;;;;;;;;137473;1274;22319;-81
2023/04/07 16:14:15;;;;;;;;;;;;;;;;;;137465;1274;22313;-80
2023/04/07 16:17:17;;;;;;;;;;;;;;;;;;137479;1274;23043;-80
2023/04/07 16:20:20;;;;;;;;;;;;;;;;;;137468;1274;22865;-80
2023/04/07 16:23:22;;;;;;;;;;;;;;;;;;137453;1273;22325;-80
2023/04/07 16:26:25;;;;;;;;;;;;;;;;;;137466;1274;22381;-80
2023/04/07 16:29:27;;;;;;;;;;;;;;;;;;137460;1274;22336;-80
2023/04/07 16:32:30;;;;;;;;;;;;;;;;;;137458;1274;22380;-80
2023/04/07 16:35:32;;;;;;;;;;;;;;;;;;137437;1274;22323;-79
2023/04/07 16:38:34;;;;;;;;;;;;;;;;;;137436;1273;22324;-80
2023/04/07 16:41:37;;;;;;;;;;;;;;;;;;137457;1274;22312;-80
2023/04/07 16:44:39;;;;;;;;;;;;;;;;;;137424;1274;22319;-80
2023/04/07 16:47:43;;;;;;;;;;;;;;;;;;137498;1274;22330;-80
2023/04/07 16:50:45;;;;;;;;;;;;;;;;;;137490;1273;22370;-80
2023/04/07 16:53:48;;;;;;;;;;;;;;;;;;137371;1273;22486;-80
2023/04/07 16:56:50;;;;;;;;;;;;;;;;;;137466;1274;22460;-80
2023/04/07 16:59:52;;;;;;;;;;;;;;;;;;137491;1273;22308;-82
2023/04/07 17:02:55;;;;;;;;;;;;;;;;;;137513;1273;22400;-81
2023/04/07 17:06:03;;;;;;;;;;;;;;;;;;137516;1274;22296;-82
2023/04/07 17:09:05;;;;;;;;;;;;;;;;;;137448;1273;22314;-81
2023/04/07 17:12:07;;;;;;;;;;;;;;;;;;137437;1274;24205;-81
2023/04/07 17:15:10;;;;;;;;;;;;;;;;;;137354;1274;22523;-82
2023/04/07 17:18:12;;;;;;;;;;;;;;;;;;137447;1274;22955;-82
2023/04/07 17:21:15;;;;;;;;;;;;;;;;;;137488;1274;22782;-81
2023/04/07 17:24:17;;;;;;;;;;;;;;;;;;137504;1274;22339;-81
2023/04/07 17:27:20;;;;;;;;;;;;;;;;;;137438;1274;22499;-82
2023/04/07 17:30:22;;;;;;;;;;;;;;;;;;137517;1264;22288;-82
2023/04/07 17:33:25;;;;;;;;;;;;;;;;;;137393;1274;22524;-82
2023/04/07 17:36:27;;;;;;;;;;;;;;;;;;137496;1274;22889;-82
2023/04/07 17:39:30;;;;;;;;;;;;;;;;;;137393;1273;22484;-81
2023/04/07 17:42:32;;;;;;;;;;;;;;;;;;137542;1274;22271;-82
2023/04/07 17:45:35;;;;;;;;;;;;;;;;;;137347;1274;22531;-81
2023/04/07 17:48:43;;;;;;;;;;;;;;;;;;137383;1274;22487;-81
2023/04/07 17:51:46;;;;;;;;;;;;;;;;;;137454;1274;22514;-81
2023/04/07 17:54:48;;;;;;;;;;;;;;;;;;137409;1273;23076;-80
2023/04/07 17:57:51;;;;;;;;;;;;;;;;;;137444;1273;22439;-81
2023/04/07 18:00:53;;;;;;;;;;;;;;;;;;137516;1270;22289;-81
2023/04/07 18:03:56;;;;;;;;;;;;;;;;;;137459;1273;22485;-81
2023/04/07 18:06:58;;;;;;;;;;;;;;;;;;137449;1273;22491;-79
2023/04/07 18:10:02;;;;;;;;;;;;;;;;;;137505;1274;22503;-81
2023/04/07 18:13:05;;;;;;;;;;;;;;;;;;137464;1273;23559;-79
2023/04/07 18:16:08;;;;;;;;;;;;;;;;;;137459;1274;22498;-79
2023/04/07 18:19:10;;;;;;;;;;;;;;;;;;137644;1273;22355;-80
2023/04/07 18:22:14;;;;;;;;;;;;;;;;;;137470;1273;22558;-82
2023/04/07 18:25:17;;;;;;;;;;;;;;;;;;137480;1273;22461;-80
2023/04/07 18:28:20;;;;;;;;;;;;;;;;;;137290;1273;22540;-81
2023/04/07 18:31:22;;;;;;;;;;;;;;;;;;137519;1274;22358;-81
2023/04/07 18:34:25;;;;;;;;;;;;;;;;;;137462;1274;22488;-81
2023/04/07 18:37:28;;;;;;;;;;;;;;;;;;137422;1273;22543;-81
2023/04/07 18:40:32;;;;;;;;;;;;;;;;;;137527;1273;22543;-82
2023/04/07 18:43:34;;;;;;;;;;;;;;;;;;137468;1273;22537;-80
2023/04/07 18:46:36;;;;;;;;;;;;;;;;;;137485;1273;22536;-80
2023/04/07 18:49:39;;;;;;;;;;;;;;;;;;137474;1273;22517;-79
2023/04/07 18:52:41;;;;;;;;;;;;;;;;;;137475;1273;22511;-80
2023/04/07 18:55:44;;;;;;;;;;;;;;;;;;137470;1274;22527;-80
2023/04/07 18:58:47;;;;;;;;;;;;;;;;;;137425;1273;22576;-80
2023/04/07 19:01:50;;;;;;;;;;;;;;;;;;137505;1274;22492;-80
2023/04/07 19:04:52;;;;;;;;;;;;;;;;;;137490;1273;22550;-80
2023/04/07 19:07:55;;;;;;;;;;;;;;;;;;137475;1273;22519;-80
2023/04/07 19:10:57;;;;;;;;;;;;;;;;;;137469;1274;23359;-81
2023/04/07 19:14:00;;;;;;;;;;;;;;;;;;137497;1273;22392;-81
2023/04/07 19:17:02;;;;;;;;;;;;;;;;;;137480;1273;22252;-81
2023/04/07 19:20:04;;;;;;;;;;;;;;;;;;137463;1273;22398;-80
2023/04/07 19:23:07;;;;;;;;;;;;;;;;;;137498;1273;22349;-79
2023/04/07 19:26:10;;;;;;;;;;;;;;;;;;137499;1273;22408;-80
2023/04/07 19:29:12;;;;;;;;;;;;;;;;;;137481;1273;22674;-80
2023/04/07 19:32:15;;;;;;;;;;;;;;;;;;137494;1273;22297;-80
2023/04/07 19:35:17;;;;;;;;;;;;;;;;;;137507;1274;22721;-80
2023/04/07 19:38:20;;;;;;;;;;;;;;;;;;137542;1266;22353;-80
2023/04/07 19:41:22;;;;;;;;;;;;;;;;;;137499;1273;22324;-80
2023/04/07 19:44:25;;;;;;;;;;;;;;;;;;137485;1273;22304;-80
2023/04/07 19:47:27;;;;;;;;;;;;;;;;;;137492;1273;22528;-80
2023/04/07 19:50:30;;;;;;;;;;;;;;;;;;137512;1272;23158;-80
2023/04/07 19:53:32;;;;;;;;;;;;;;;;;;137569;1274;22316;-80
2023/04/07 19:56:35;;;;;;;;;;;;;;;;;;137524;1273;22432;-80
2023/04/07 19:59:37;;;;;;;;;;;;;;;;;;137454;1273;22509;-80
2023/04/07 20:02:40;;;;;;;;;;;;;;;;;;137402;1273;22567;-80
2023/04/07 20:05:42;;;;;;;;;;;;;;;;;;137385;1273;22552;-80
2023/04/07 20:08:45;;;;;;;;;;;;;;;;;;137398;1273;22498;-80
2023/04/07 20:11:47;;;;;;;;;;;;;;;;;;137609;1273;22787;-80
2023/04/07 20:14:49;;;;;;;;;;;;;;;;;;137495;1273;22935;-81
2023/04/07 20:17:52;;;;;;;;;;;;;;;;;;137501;1273;23012;-80
2023/04/07 20:20:55;;;;;;;;;;;;;;;;;;137517;1273;22312;-79